Time;durP1;ratioP1;P1;durP2;ratioP2;P2;SDS_P1;SDS_P2;PMS_P1;PMS_P2;Temp;Humidity;BMP_temperature;BMP_pressure;BME280_temperature;BME280_humidity;BME280_pressure;Samples;Min_cycle;Max_cycle;Signal;HPM_P1;HPM_P2
2023/02/07 00:02:38;;;;;;;15.70;14.00;;;;;;;-3.75;100.00;100762.50;15292429;19;20090;-79
2023/02/07 00:08:08;;;;;;;16.27;14.55;;;;;;;-3.76;100.00;100760.75;15289317;19;20061;-79
2023/02/07 00:13:33;;;;;;;16.00;14.15;;;;;;;-3.76;100.00;100750.22;15287341;19;20014;-79
2023/02/07 00:18:59;;;;;;;15.60;14.00;;;;;;;-3.77;100.00;100743.19;15285566;19;20014;-79
2023/02/07 00:24:26;;;;;;;16.30;14.60;;;;;;;-3.80;100.00;100732.69;15287948;19;20023;-78
2023/02/07 00:29:52;;;;;;;16.77;14.90;;;;;;;-3.89;100.00;100709.94;15294905;19;20018;-81
2023/02/07 00:35:24;;;;;;;16.83;15.13;;;;;;;-3.91;100.00;100724.00;15286430;19;20018;-81
2023/02/07 00:40:52;;;;;;;16.27;14.00;;;;;;;-3.98;100.00;100744.25;15290513;19;20022;-81
2023/02/07 00:46:17;;;;;;;16.90;14.80;;;;;;;-4.03;100.00;100736.38;15291170;19;20015;-79
2023/02/07 00:51:43;;;;;;;18.65;16.63;;;;;;;-4.05;100.00;100740.78;15287293;19;20353;-79
2023/02/07 00:57:11;;;;;;;17.23;15.32;;;;;;;-4.06;100.00;100717.97;15302039;19;20011;-80
2023/02/07 01:02:36;;;;;;;19.85;16.45;;;;;;;-4.11;100.00;100722.41;15302451;19;20015;-79
2023/02/07 01:08:00;;;;;;;17.02;15.23;;;;;;;-4.14;100.00;100732.94;15287594;19;20078;-79
2023/02/07 01:13:28;;;;;;;19.42;16.33;;;;;;;-4.13;100.00;100737.34;15297713;19;20020;-78
2023/02/07 01:18:52;;;;;;;18.85;16.55;;;;;;;-4.11;100.00;100742.56;15298944;19;20017;-79
2023/02/07 01:24:18;;;;;;;18.33;16.08;;;;;;;-4.08;100.00;100727.66;15294803;19;20074;-78
2023/02/07 01:29:45;;;;;;;17.23;15.38;;;;;;;-4.09;100.00;100725.91;15295323;19;20018;-80
2023/02/07 01:35:17;;;;;;;17.90;16.00;;;;;;;-4.04;100.00;100721.47;15304985;19;20014;-79
2023/02/07 01:40:42;;;;;;;18.33;16.42;;;;;;;-4.03;100.00;100723.22;15308594;19;20390;-79
2023/02/07 01:46:09;;;;;;;20.13;16.92;;;;;;;-3.99;100.00;100717.94;15312954;19;20022;-78
2023/02/07 01:51:34;;;;;;;17.80;15.75;;;;;;;-3.97;100.00;100714.38;15303225;19;20030;-79
2023/02/07 01:57:05;;;;;;;18.83;16.80;;;;;;;-3.98;100.00;100717.03;15296284;19;20014;-79
2023/02/07 02:02:36;;;;;;;20.88;18.55;;;;;;;-3.96;100.00;100702.97;15293674;19;20018;-79
2023/02/07 02:08:02;;;;;;;18.60;16.50;;;;;;;-3.97;100.00;100710.91;15306780;19;20042;-80
2023/02/07 02:13:35;;;;;;;18.02;16.13;;;;;;;-4.05;100.00;100696.00;15314853;19;20015;-79
2023/02/07 02:19:29;;;;;;;17.67;15.82;;;;;;;-4.08;100.00;100682.00;15314335;19;20014;-79
2023/02/07 02:25:35;;;;;;;17.88;15.98;;;;;;;-4.09;100.00;100683.78;15300067;19;20031;-79
2023/02/07 02:31:28;;;;;;;16.50;14.80;;;;;;;-4.19;100.00;100676.84;15290773;19;20612;-80
2023/02/07 02:37:08;;;;;;;;;;;;;;;-4.24;100.00;100678.63;15297886;19;20657;-79
2023/02/07 02:42:37;;;;;;;17.45;15.60;;;;;;;-4.28;100.00;100666.38;15288304;19;20421;-78
2023/02/07 02:48:04;;;;;;;19.83;17.60;;;;;;;-4.28;100.00;100667.25;15290838;19;20010;-78
2023/02/07 02:53:32;;;;;;;19.10;16.52;;;;;;;-4.30;100.00;100669.03;15298616;19;20022;-76
2023/02/07 02:59:12;;;;;;;19.88;16.55;;;;;;;-4.32;100.00;100669.94;15298809;19;20026;-77
2023/02/07 03:04:54;;;;;;;19.35;17.25;;;;;;;-4.41;100.00;100662.97;15296533;19;20060;-78
2023/02/07 03:10:33;;;;;;;19.48;17.45;;;;;;;-4.44;100.00;100666.50;15282085;19;20022;-78
2023/02/07 03:16:09;;;;;;;20.00;17.25;;;;;;;-4.50;100.00;100671.78;15290504;19;20014;-77
2023/02/07 03:21:39;;;;;;;19.20;17.05;;;;;;;-4.52;100.00;100677.06;15289090;19;20019;-78
2023/02/07 03:27:11;;;;;;;20.30;17.88;;;;;;;-4.57;100.00;100684.09;15293880;19;20019;-79
2023/02/07 03:32:39;;;;;;;19.33;17.27;;;;;;;-4.65;100.00;100678.91;15285631;19;20369;-78
2023/02/07 03:38:12;;;;;;;20.77;18.23;;;;;;;-4.68;100.00;100680.66;15297387;19;20485;-80
2023/02/07 03:43:43;;;;;;;20.55;18.25;;;;;;;-4.75;100.00;100671.94;15317474;19;20003;-78
2023/02/07 03:49:10;;;;;;;20.38;18.02;;;;;;;-4.80;100.00;100681.63;15330640;19;20481;-81
2023/02/07 03:54:35;;;;;;;23.60;20.45;;;;;;;-4.88;100.00;100691.31;15298682;19;20407;-80
2023/02/07 04:00:02;;;;;;;21.77;18.08;;;;;;;-4.92;100.00;100694.84;15295916;19;20035;-79
2023/02/07 04:05:27;;;;;;;22.15;19.33;;;;;;;-4.96;100.00;100704.50;15290042;19;20025;-78
2023/02/07 04:10:51;;;;;;;22.13;19.45;;;;;;;-4.98;100.00;100706.25;15289891;19;20019;-79
2023/02/07 04:16:19;;;;;;;22.83;19.40;;;;;;;-5.05;100.00;100705.41;15284388;19;20018;-81
2023/02/07 04:21:44;;;;;;;20.55;18.23;;;;;;;-5.15;100.00;100708.94;15275674;19;20315;-76
2023/02/07 04:27:09;;;;;;;24.02;20.55;;;;;;;-5.16;100.00;100712.44;15279298;19;20709;-77
2023/02/07 04:32:37;;;;;;;27.95;22.85;;;;;;;-5.16;100.00;100704.56;15294489;19;20480;-80
2023/02/07 04:38:08;;;;;;;28.25;22.70;;;;;;;-5.21;100.00;100709.84;15291338;19;20027;-76
2023/02/07 04:43:35;;;;;;;27.92;23.40;;;;;;;-5.20;100.00;100711.59;15295160;19;20089;-80
2023/02/07 04:49:03;;;;;;;29.15;23.65;;;;;;;-5.24;100.00;100711.63;15307011;19;20795;-78
2023/02/07 04:54:28;;;;;;;31.50;26.13;;;;;;;-5.30;100.00;100710.75;15301475;19;19999;-78
2023/02/07 04:59:55;;;;;;;33.42;26.65;;;;;;;-5.27;100.00;100725.63;15303071;19;20338;-77
2023/02/07 05:05:23;;;;;;;35.53;27.02;;;;;;;-5.23;100.00;100726.50;15302361;19;20013;-78
2023/02/07 05:10:42;;;;;;;495.58;31.27;;;;;;;-5.33;100.00;100734.38;15295240;19;20538;-78
2023/02/07 05:16:06;;;;;;;43.53;26.95;;;;;;;-5.37;100.00;100732.66;15295048;19;20006;-78
2023/02/07 05:21:34;;;;;;;125.90;26.50;;;;;;;-5.38;100.00;100722.13;15297456;19;20022;-78
2023/02/07 05:26:58;;;;;;;37.53;27.42;;;;;;;-5.43;100.00;100727.41;15290311;19;20488;-78
2023/02/07 05:38:05;;;;;;;36.85;23.63;;;;;;;-5.38;100.00;100737.91;15295379;19;20276;-78
2023/02/07 05:43:30;;;;;;;33.45;25.52;;;;;;;-5.43;100.00;100733.56;15289741;19;20035;-78
2023/02/07 05:48:54;;;;;;;29.70;25.17;;;;;;;-5.46;100.00;100740.53;15293936;19;20744;-78
2023/02/07 05:54:22;;;;;;;30.40;25.58;;;;;;;-5.46;100.00;100736.19;15300963;19;20476;-78
2023/02/07 05:59:46;;;;;;;29.95;25.20;;;;;;;-5.46;100.00;100748.44;15300326;19;20014;-79
2023/02/07 06:05:23;;;;;;;31.30;26.13;;;;;;;-5.43;100.00;100746.69;15307228;19;20022;-77
2023/02/07 06:10:50;;;;;;;34.85;27.50;;;;;;;-5.41;100.00;100754.56;15301504;19;20033;-77
2023/02/07 06:16:16;;;;;;;30.52;25.48;;;;;;;-5.45;100.00;100758.06;15291412;19;20015;-77
2023/02/07 06:21:42;;;;;;;37.88;26.13;;;;;;;-5.53;100.00;100759.84;15295447;19;20456;-78
2023/02/07 06:27:10;;;;;;;35.42;25.83;;;;;;;-5.66;100.00;100767.72;15287910;19;20022;-79
2023/02/07 06:32:35;;;;;;;34.05;26.17;;;;;;;-5.64;100.00;100772.97;15308351;19;20022;-79
2023/02/07 06:38:09;;;;;;;32.83;26.02;;;;;;;-5.65;100.00;100772.09;14937238;19;5000892;-79
2023/02/07 06:43:38;;;;;;;44.22;28.70;;;;;;;-5.66;100.00;100772.97;15281888;19;20014;-77
2023/02/07 06:49:05;;;;;;;50.72;30.30;;;;;;;-5.79;100.00;100780.00;15292797;19;20023;-79
2023/02/07 06:54:32;;;;;;;33.55;26.67;;;;;;;-5.83;100.00;100780.00;15297668;19;20035;-80
2023/02/07 07:00:00;;;;;;;33.25;27.10;;;;;;;-5.79;100.00;100785.25;15294423;19;20078;-80
2023/02/07 07:05:28;;;;;;;29.83;25.30;;;;;;;-5.81;100.00;100775.59;15294849;19;20043;-80
2023/02/07 07:10:57;;;;;;;61.42;28.65;;;;;;;-5.92;100.00;100758.09;15302759;19;20019;-80
2023/02/07 07:16:25;;;;;;;44.58;30.35;;;;;;;-5.93;100.00;100755.47;15294305;19;20007;-81
2023/02/07 07:21:50;;;;;;;155.15;33.63;;;;;;;-6.04;100.00;100776.47;15310582;19;20046;-82
2023/02/07 07:27:18;;;;;;;47.90;33.28;;;;;;;-5.96;100.00;100772.09;15301322;19;20078;-81
2023/02/07 07:32:46;;;;;;;45.00;32.35;;;;;;;-5.96;100.00;100782.59;15314745;19;20021;-79
2023/02/07 07:38:19;;;;;;;42.88;32.20;;;;;;;-5.95;100.00;100783.47;15343311;19;20026;-82
2023/02/07 07:43:45;;;;;;;64.93;32.30;;;;;;;-6.01;100.00;100788.75;15310562;19;20023;-82
2023/02/07 07:49:13;;;;;;;49.65;32.05;;;;;;;-5.99;100.00;100781.72;15297791;19;20018;-80
2023/02/07 07:54:38;;;;;;;57.35;30.88;;;;;;;-6.05;100.00;100778.25;15299967;19;20021;-81
2023/02/07 08:00:09;;;;;;;59.65;31.88;;;;;;;-6.10;100.00;100785.22;15301721;19;20022;-81
2023/02/07 08:05:37;;;;;;;48.33;32.90;;;;;;;-5.99;100.00;100794.84;15298460;19;21091;-80
2023/02/07 08:11:03;;;;;;;43.67;31.95;;;;;;;-5.96;100.00;100787.84;15303210;19;20006;-80
2023/02/07 08:16:29;;;;;;;40.00;31.10;;;;;;;-5.84;100.00;100794.00;15309655;19;20022;-81
2023/02/07 08:21:57;;;;;;;37.95;30.58;;;;;;;-5.78;100.00;100793.97;15311345;19;20018;-79
2023/02/07 08:27:23;;;;;;;53.95;29.35;;;;;;;-5.71;100.00;100795.75;15312237;19;20018;-81
2023/02/07 08:32:50;;;;;;;37.42;28.60;;;;;;;-5.58;100.00;100800.09;15308515;19;20034;-82
2023/02/07 08:38:18;;;;;;;34.58;27.67;;;;;;;-5.58;100.00;100792.22;15339721;19;20018;-81
2023/02/07 08:43:43;;;;;;;35.78;28.65;;;;;;;-5.48;100.00;100790.47;15301625;19;20015;-82
2023/02/07 08:49:08;;;;;;;38.05;30.15;;;;;;;-5.38;100.00;100785.19;15303499;19;20025;-80
2023/02/07 08:54:36;;;;;;;33.15;26.70;;;;;;;-5.38;100.00;100783.47;15299516;19;20491;-81
2023/02/07 09:00:02;;;;;;;32.70;28.52;;;;;;;-5.23;100.00;100784.31;15306404;19;20018;-82
2023/02/07 09:05:29;;;;;;;34.67;27.48;;;;;;;-5.07;100.00;100786.03;15296894;19;20666;-81
2023/02/07 09:10:57;;;;;;;28.27;24.92;;;;;;;-4.93;100.00;100782.47;15298102;19;20003;-82
2023/02/07 09:16:25;;;;;;;28.42;24.60;;;;;;;-4.96;100.00;100768.47;15297949;19;20017;-82
2023/02/07 09:21:50;;;;;;;28.48;25.38;;;;;;;-4.89;100.00;100768.44;15297913;19;20074;-81
2023/02/07 09:27:19;;;;;;;29.15;24.80;;;;;;;-4.81;100.00;100764.03;15267739;19;20630;-82
2023/02/07 09:32:45;;;;;;;27.60;24.65;;;;;;;-4.65;100.00;100767.47;15295721;19;20356;-82
2023/02/07 09:38:10;;;;;;;26.48;23.67;;;;;;;-4.54;100.00;100770.06;15295231;19;20023;-80
2023/02/07 09:43:50;;;;;;;26.25;23.45;;;;;;;-4.37;100.00;100781.34;15288896;19;20010;-82
2023/02/07 09:49:22;;;;;;;27.67;24.50;;;;;;;-4.19;100.00;100784.78;15290177;19;20458;-82
2023/02/07 09:54:53;;;;;;;28.08;23.65;;;;;;;-4.26;100.00;100780.41;15293588;19;20018;-78
2023/02/07 10:00:28;;;;;;;25.42;22.75;;;;;;;-4.14;100.00;100774.22;15299241;19;20039;-78
2023/02/07 10:05:59;;;;;;;24.25;21.65;;;;;;;-4.05;100.00;100771.50;15307464;19;20568;-78
2023/02/07 10:11:47;;;;;;;25.65;21.73;;;;;;;-3.87;100.00;100776.63;15316609;19;20013;-79
2023/02/07 10:17:35;;;;;;;23.67;21.05;;;;;;;-3.68;100.00;100755.44;15307060;19;20018;-79
2023/02/07 10:23:11;;;;;;;25.45;22.02;;;;;;;-3.52;100.00;100753.53;15291682;19;20022;-78
2023/02/07 10:28:59;;;;;;;22.77;20.35;;;;;;;-3.35;100.00;100749.88;15294469;19;20062;-79
2023/02/07 10:34:29;;;;;;;23.85;20.95;;;;;;;-3.19;100.00;100756.72;15299947;19;20063;-79
2023/02/07 10:40:05;;;;;;;23.50;20.95;;;;;;;-3.11;100.00;100743.44;15296012;19;20003;-79
2023/02/07 10:45:30;;;;;;;21.98;19.42;;;;;;;-2.90;100.00;100755.53;15297475;19;20364;-79
2023/02/07 10:51:01;;;;;;;21.08;18.77;;;;;;;-2.87;100.00;100742.28;15308187;19;20011;-79
2023/02/07 10:56:27;;;;;;;21.13;18.92;;;;;;;-2.69;100.00;100749.09;15298582;19;20348;-80
2023/02/07 11:01:55;;;;;;;20.65;18.45;;;;;;;-2.52;100.00;100733.03;15290505;19;20519;-79
2023/02/07 11:07:23;;;;;;;20.35;18.25;;;;;;;-2.43;100.00;100713.53;15294232;19;20028;-79
2023/02/07 11:13:06;;;;;;;20.63;18.42;;;;;;;-2.36;100.00;100709.06;15290826;19;20015;-78
2023/02/07 11:18:43;;;;;;;21.33;19.02;;;;;;;-2.18;100.00;100708.78;15286837;19;20024;-79
2023/02/07 11:24:16;;;;;;;20.88;18.67;;;;;;;-1.96;100.00;100703.16;15293285;19;20027;-78
2023/02/07 11:29:45;;;;;;;19.70;17.60;;;;;;;-1.82;100.00;100686.22;15303415;19;20018;-79
2023/02/07 11:35:22;;;;;;;19.27;17.30;;;;;;;-1.78;100.00;100693.16;15289183;19;20006;-78
2023/02/07 11:40:51;;;;;;;19.63;17.52;;;;;;;-1.77;100.00;100684.34;15285131;19;20015;-80
2023/02/07 11:46:17;;;;;;;19.20;17.20;;;;;;;-1.70;100.00;100685.97;15290443;19;20397;-82
2023/02/07 11:51:42;;;;;;;19.42;17.42;;;;;;;-1.67;100.00;100696.47;15288334;19;20011;-82
2023/02/07 11:57:14;;;;;;;19.48;17.55;;;;;;;-1.64;100.00;100696.44;15289618;19;20373;-80
2023/02/07 12:02:39;;;;;;;20.08;16.48;;;;;;;-1.64;100.00;100679.69;15292685;19;20011;-81
2023/02/07 12:08:09;;;;;;;19.45;17.42;;;;;;;-1.57;100.00;100682.19;15292286;19;20240;-83
2023/02/07 12:13:45;;;;;;;20.02;16.42;;;;;;;-1.41;100.00;100681.91;15293098;19;20015;-81
2023/02/07 12:19:16;;;;;;;17.50;15.70;;;;;;;-1.39;100.00;100688.06;15291348;19;20098;-82
2023/02/07 12:24:46;;;;;;;18.98;17.05;;;;;;;-1.29;100.00;100681.69;15286452;19;20043;-80
2023/02/07 12:30:25;;;;;;;18.80;16.70;;;;;;;-1.07;100.00;100685.69;15287053;19;20502;-82
2023/02/07 12:36:09;;;;;;;17.13;14.88;;;;;;;-0.92;100.00;100680.06;15285805;19;20018;-82
2023/02/07 12:41:44;;;;;;;18.65;16.10;;;;;;;-0.78;100.00;100669.19;15289192;19;20010;-82
2023/02/07 12:47:24;;;;;;;20.25;17.10;;;;;;;-0.57;100.00;100674.91;15287309;19;20014;-84
2023/02/07 12:53:00;;;;;;;21.02;17.63;;;;;;;-0.38;100.00;100670.91;15300610;19;20397;-83
2023/02/07 12:58:37;;;;;;;19.80;16.58;;;;;;;-0.33;100.00;100658.44;15288146;19;20014;-80
2023/02/07 13:04:28;;;;;;;19.50;17.35;;;;;;;-0.05;100.00;100670.16;15291679;19;20022;-82
2023/02/07 13:09:59;;;;;;;19.45;16.75;;;;;;;0.11;100.00;100666.22;15305950;19;20412;-82
2023/02/07 13:15:35;;;;;;;19.52;17.42;;;;;;;0.34;100.00;100669.16;15308397;19;20028;-82
2023/02/07 13:21:12;;;;;;;19.17;17.02;;;;;;;0.41;100.00;100668.09;15311752;19;20018;-80
2023/02/07 13:26:38;;;;;;;20.15;16.42;;;;;;;0.51;100.00;100650.13;15303510;19;20019;-81
2023/02/07 13:32:11;;;;;;;20.55;18.40;;;;;;;0.48;100.00;100637.84;15306754;19;20015;-81
2023/02/07 13:37:47;;;;;;;20.45;18.23;;;;;;;0.56;100.00;100637.63;15297519;19;20014;-80
2023/02/07 13:43:18;;;;;;;19.80;17.70;;;;;;;0.70;100.00;100643.41;15291121;19;20142;-81
2023/02/07 13:48:52;;;;;;;19.52;17.52;;;;;;;0.77;100.00;100641.44;15309759;19;20018;-78
2023/02/07 13:54:30;;;;;;;19.75;17.65;;;;;;;0.76;100.00;100640.59;15298765;19;20081;-80
2023/02/07 14:00:18;;;;;;;18.92;17.00;;;;;;;0.88;100.00;100638.47;15292761;19;20003;-80
2023/02/07 14:05:51;;;;;;;17.65;15.85;;;;;;;0.92;100.00;100633.03;15293858;19;20007;-79
2023/02/07 14:11:23;;;;;;;19.10;17.10;;;;;;;0.76;100.00;100629.97;15294452;19;20070;-81
2023/02/07 14:16:59;;;;;;;19.02;17.02;;;;;;;0.61;100.00;100627.75;15288092;19;20010;-80
2023/02/07 14:22:27;;;;;;;16.65;14.85;;;;;;;0.55;100.00;100623.47;15303071;19;20085;-79
2023/02/07 14:28:25;;;;;;;16.40;14.70;;;;;;;0.51;100.00;100607.69;15302976;19;20014;-79
2023/02/07 14:34:15;;;;;;;17.23;15.20;;;;;;;0.47;100.00;100601.63;15298558;19;20031;-78
2023/02/07 14:39:46;;;;;;;16.95;15.25;;;;;;;0.61;100.00;100603.88;15293441;19;20018;-80
2023/02/07 14:45:22;;;;;;;17.33;15.48;;;;;;;0.54;100.00;100602.31;15291131;19;20010;-78
2023/02/07 14:50:59;;;;;;;16.58;14.88;;;;;;;0.57;100.00;100603.09;15292080;19;20032;-79
2023/02/07 14:56:38;;;;;;;17.83;15.93;;;;;;;0.45;100.00;100603.44;15288621;19;20030;-79
2023/02/07 15:02:02;;;;;;;18.02;16.13;;;;;;;0.43;100.00;100599.94;15289520;19;20018;-78
2023/02/07 15:07:30;;;;;;;17.90;16.00;;;;;;;0.39;100.00;100601.81;15286377;19;20019;-78
2023/02/07 15:12:55;;;;;;;19.00;16.35;;;;;;;0.35;100.00;100596.66;15290090;19;20803;-80
2023/02/07 15:18:26;;;;;;;18.33;16.42;;;;;;;0.45;100.00;100592.81;15318506;19;20014;-76
2023/02/07 15:23:57;;;;;;;21.92;18.38;;;;;;;0.42;100.00;100598.22;15303637;19;20761;-78
2023/02/07 15:29:24;;;;;;;22.50;19.10;;;;;;;-0.01;100.00;100590.53;15282403;19;20040;-76
2023/02/07 15:34:48;;;;;;;21.63;19.38;;;;;;;-0.36;100.00;100597.59;15288015;19;20047;-81
2023/02/07 15:40:19;;;;;;;22.63;20.23;;;;;;;-0.53;100.00;100591.84;15299226;19;20022;-79
2023/02/07 15:45:47;;;;;;;21.35;19.08;;;;;;;-0.70;100.00;100598.41;15291166;19;20057;-78
2023/02/07 15:51:14;;;;;;;24.75;21.38;;;;;;;-0.78;100.00;100603.88;15303979;19;20010;-78
2023/02/07 15:56:41;;;;;;;23.23;20.80;;;;;;;-0.95;100.00;100611.34;15293208;19;20014;-80
2023/02/07 16:02:07;;;;;;;24.17;21.52;;;;;;;-1.17;100.00;100629.44;15287681;19;20417;-79
2023/02/07 16:07:33;;;;;;;25.25;21.90;;;;;;;-1.27;100.00;100636.69;15292753;19;20010;-80
2023/02/07 16:13:19;;;;;;;24.10;21.48;;;;;;;-1.47;100.00;100634.47;15319056;19;20027;-79
2023/02/07 16:18:51;;;;;;;25.35;22.30;;;;;;;-1.58;100.00;100638.16;15317737;19;20031;-79
2023/02/07 16:24:19;;;;;;;26.55;23.27;;;;;;;-1.82;100.00;100634.22;15312209;19;20014;-78
2023/02/07 16:29:49;;;;;;;27.02;22.65;;;;;;;-1.96;100.00;100634.47;15288257;19;20019;-78
2023/02/07 16:35:22;;;;;;;28.20;23.75;;;;;;;-2.11;100.00;100626.78;15284612;19;20021;-78
2023/02/07 16:40:47;;;;;;;27.90;23.33;;;;;;;-2.24;100.00;100645.50;15296754;19;20054;-78
2023/02/07 16:46:14;;;;;;;27.00;23.23;;;;;;;-2.33;100.00;100649.16;15296830;19;20007;-78
2023/02/07 16:51:33;;;;;;;30.50;24.73;;;;;;;-2.55;100.00;100653.00;15299337;19;20030;-75
2023/02/07 16:56:59;;;;;;;30.90;25.90;;;;;;;-2.70;100.00;100659.38;15284481;19;20002;-77
2023/02/07 17:02:26;;;;;;;30.52;25.42;;;;;;;-2.76;100.00;100659.50;15328193;19;20549;-79
2023/02/07 17:07:51;;;;;;;31.30;25.60;;;;;;;-2.86;100.00;100653.47;15321998;19;20027;-79
2023/02/07 17:13:18;;;;;;;31.95;25.58;;;;;;;-2.93;100.00;100660.59;15325269;19;20018;-79
2023/02/07 17:18:46;;;;;;;30.95;26.17;;;;;;;-3.01;100.00;100665.09;15316497;19;20019;-79
2023/02/07 17:24:11;;;;;;;30.50;25.35;;;;;;;-3.06;100.00;100666.91;15327268;19;20391;-79
2023/02/07 17:29:35;;;;;;;30.58;25.58;;;;;;;-3.14;100.00;100681.06;15318386;19;20023;-78
2023/02/07 17:35:03;;;;;;;32.72;26.67;;;;;;;-3.28;100.00;100677.72;15307360;19;20017;-80
2023/02/07 17:40:37;;;;;;;35.83;27.98;;;;;;;-3.32;100.00;100702.34;15301064;19;20022;-79
2023/02/07 17:46:02;;;;;;;35.55;27.63;;;;;;;-3.47;100.00;100704.25;15296003;19;20100;-80
2023/02/07 17:51:32;;;;;;;36.83;28.80;;;;;;;-3.57;100.00;100719.31;15301423;19;20093;-80
2023/02/07 17:56:56;;;;;;;39.22;29.90;;;;;;;-3.75;100.00;100719.47;15293473;19;20323;-76
2023/02/07 18:02:21;;;;;;;39.33;30.65;;;;;;;-3.85;100.00;100726.59;15290672;19;20541;-77
2023/02/07 18:07:50;;;;;;;44.47;31.20;;;;;;;-3.91;100.00;100731.91;15287193;19;20055;-77
2023/02/07 18:13:15;;;;;;;43.60;31.65;;;;;;;-3.91;100.00;100726.63;15292505;19;20024;-76
2023/02/07 18:18:39;;;;;;;39.28;29.48;;;;;;;-3.93;100.00;100733.66;15283498;19;20020;-75
2023/02/07 18:24:06;;;;;;;40.28;29.38;;;;;;;-3.99;100.00;100728.47;15283232;19;20026;-77
2023/02/07 18:29:31;;;;;;;42.38;30.23;;;;;;;-4.06;100.00;100733.75;15283590;19;20408;-77
2023/02/07 18:34:56;;;;;;;40.40;30.27;;;;;;;-4.11;100.00;100743.47;15282435;19;20816;-77
2023/02/07 18:40:23;;;;;;;40.08;30.25;;;;;;;-4.21;100.00;100747.06;15291124;19;20377;-77
2023/02/07 18:45:49;;;;;;;40.72;30.92;;;;;;;-4.33;100.00;100742.72;15289441;19;20047;-78
2023/02/07 18:51:16;;;;;;;42.63;31.30;;;;;;;-4.44;100.00;100744.56;15288751;19;20012;-77
2023/02/07 18:56:50;;;;;;;48.17;33.17;;;;;;;-4.53;100.00;100750.75;15291889;19;20013;-78
2023/02/07 19:02:15;;;;;;;47.95;34.28;;;;;;;-4.65;100.00;100749.94;15294238;19;20010;-77
2023/02/07 19:07:41;;;;;;;48.38;34.17;;;;;;;-4.69;100.00;100745.56;15281775;19;20021;-76
2023/02/07 19:13:09;;;;;;;47.45;33.53;;;;;;;-4.71;100.00;100742.06;15332145;19;20011;-76
2023/02/07 19:18:34;;;;;;;47.88;33.38;;;;;;;-4.78;100.00;100740.34;15280719;19;20382;-74
2023/02/07 19:24:00;;;;;;;45.13;32.22;;;;;;;-4.83;100.00;100739.50;14764008;19;10001396;-76
2023/02/07 19:29:30;;;;;;;45.65;32.38;;;;;;;-4.87;100.00;100732.47;15277855;19;20086;-75
2023/02/07 19:34:56;;;;;;;43.00;31.08;;;;;;;-4.93;100.00;100735.16;15275766;19;20354;-75
2023/02/07 19:40:27;;;;;;;42.40;29.75;;;;;;;-4.95;100.00;100737.81;15273406;19;20018;-75
2023/02/07 19:45:55;;;;;;;40.47;30.35;;;;;;;-5.03;100.00;100731.69;15272887;19;20098;-76
2023/02/07 19:51:23;;;;;;;39.88;29.15;;;;;;;-5.02;100.00;100725.53;15277247;19;20010;-77
2023/02/07 19:56:47;;;;;;;39.40;29.13;;;;;;;-5.05;100.00;100731.69;15278513;19;20086;-77
2023/02/07 20:02:16;;;;;;;40.90;30.27;;;;;;;-5.11;100.00;100727.31;15273687;19;20082;-77
2023/02/07 20:07:41;;;;;;;42.95;31.25;;;;;;;-5.15;100.00;100729.97;15270427;19;20014;-76
2023/02/07 20:13:06;;;;;;;40.95;30.70;;;;;;;-5.17;100.00;100731.72;15264175;19;20017;-78
2023/02/07 20:18:34;;;;;;;38.42;28.42;;;;;;;-5.24;100.00;100736.13;15274277;19;20010;-77
2023/02/07 20:24:01;;;;;;;36.70;28.08;;;;;;;-5.26;100.00;100720.38;15274562;19;20014;-78
2023/02/07 20:29:25;;;;;;;36.92;27.55;;;;;;;-5.28;100.00;100727.38;15276096;19;20014;-77
2023/02/07 20:34:53;;;;;;;39.25;28.85;;;;;;;-5.31;100.00;100729.16;15278305;19;20014;-77
2023/02/07 20:40:24;;;;;;;38.90;28.75;;;;;;;-5.35;100.00;100733.50;15299651;19;20018;-80
2023/02/07 20:45:48;;;;;;;40.17;29.90;;;;;;;-5.44;100.00;100739.69;15303227;19;20010;-80
2023/02/07 20:51:17;;;;;;;40.50;29.83;;;;;;;-5.47;100.00;100733.56;15304212;19;20831;-81
2023/02/07 20:56:42;;;;;;;35.25;27.15;;;;;;;-5.51;100.00;100729.19;15296290;19;20037;-79
2023/02/07 21:02:08;;;;;;;38.85;28.52;;;;;;;-5.55;100.00;100740.56;15291284;19;20013;-80
2023/02/07 21:07:35;;;;;;;34.25;26.35;;;;;;;-5.55;100.00;100748.44;15292820;19;20018;-80
2023/02/07 21:13:00;;;;;;;32.67;23.95;;;;;;;-5.60;100.00;100738.84;15303281;19;20485;-79
2023/02/07 21:18:24;;;;;;;31.67;25.13;;;;;;;-5.64;100.00;100729.19;15300274;19;20018;-79
2023/02/07 21:23:52;;;;;;;34.28;25.30;;;;;;;-5.70;100.00;100731.81;15303730;19;21505;-80
2023/02/07 21:29:18;;;;;;;33.15;24.95;;;;;;;-5.72;100.00;100738.84;15333055;19;20557;-81
2023/02/07 21:34:47;;;;;;;35.08;26.30;;;;;;;-5.82;100.00;100724.84;15299751;19;20010;-79
2023/02/07 21:40:23;;;;;;;32.70;25.27;;;;;;;-5.85;100.00;100727.47;15291200;19;20552;-80
2023/02/07 21:45:47;;;;;;;33.33;24.75;;;;;;;-5.85;100.00;100718.72;15292004;19;20021;-82
2023/02/07 21:51:14;;;;;;;33.22;24.92;;;;;;;-5.86;100.00;100725.72;15294927;19;20019;-80
2023/02/07 21:56:44;;;;;;;32.75;24.23;;;;;;;-5.91;100.00;100722.22;15296516;19;20031;-80
2023/02/07 22:02:11;;;;;;;32.00;24.05;;;;;;;-5.95;100.00;100713.47;15295400;19;20018;-81
2023/02/07 22:07:35;;;;;;;31.65;23.65;;;;;;;-5.93;100.00;100716.09;15296609;19;20027;-80
2023/02/07 22:13:08;;;;;;;31.25;23.20;;;;;;;-5.94;100.00;100717.81;15301558;19;20078;-78
2023/02/07 22:18:34;;;;;;;28.52;22.05;;;;;;;-5.94;100.00;100709.09;15294309;19;20024;-80
2023/02/07 22:24:00;;;;;;;30.45;23.75;;;;;;;-5.95;100.00;100692.47;15305531;19;20078;-79
2023/02/07 22:29:27;;;;;;;33.42;25.20;;;;;;;-5.94;100.00;100683.69;15290059;19;20029;-79
2023/02/07 22:34:54;;;;;;;31.17;24.30;;;;;;;-5.95;100.00;100678.47;15291909;19;20042;-80
2023/02/07 22:40:27;;;;;;;32.80;23.75;;;;;;;-5.97;100.00;100678.47;15291202;19;20021;-79
2023/02/07 22:45:55;;;;;;;32.88;24.63;;;;;;;-5.99;100.00;100663.63;15292567;19;20014;-79
2023/02/07 22:51:26;;;;;;;30.63;23.10;;;;;;;-6.05;100.00;100668.00;15291854;19;20018;-79
2023/02/07 22:56:51;;;;;;;31.02;24.00;;;;;;;-6.10;100.00;100659.25;15288672;19;20085;-80
2023/02/07 23:02:19;;;;;;;32.60;23.83;;;;;;;-6.10;100.00;100656.63;15341484;19;20029;-78
2023/02/07 23:07:47;;;;;;;33.67;25.63;;;;;;;-6.04;100.00;100658.38;15292908;19;20077;-80
2023/02/07 23:13:13;;;;;;;35.40;26.25;;;;;;;-6.03;100.00;100662.75;15297204;19;20006;-81
2023/02/07 23:18:40;;;;;;;32.47;25.17;;;;;;;-6.04;100.00;100659.25;15293724;19;20043;-81
2023/02/07 23:24:07;;;;;;;34.30;26.00;;;;;;;-6.04;100.00;100661.00;15288510;19;20567;-80
2023/02/07 23:29:32;;;;;;;33.95;26.30;;;;;;;-6.06;100.00;100662.78;15286949;19;20087;-81
2023/02/07 23:35:02;;;;;;;35.08;25.23;;;;;;;-6.10;100.00;100668.88;15283528;19;20018;-80
2023/02/07 23:40:33;;;;;;;34.90;26.52;;;;;;;-6.13;100.00;100664.53;15283092;19;20006;-81
2023/02/07 23:46:00;;;;;;;34.72;26.63;;;;;;;-6.16;100.00;100663.63;15281552;19;20486;-81
2023/02/07 23:51:29;;;;;;;35.97;27.33;;;;;;;-6.18;100.00;100675.91;15288445;19;20497;-81
2023/02/07 23:56:56;;;;;;;38.83;28.45;;;;;;;-6.18;100.00;100662.78;15273118;19;20127;-81
